createdAt,value
2023-03-28T00:01:20.396Z,101668.44
2023-03-28T00:03:46.936Z,101671.38
2023-03-28T00:06:18.632Z,101676.28
2023-03-28T00:08:47.276Z,101681.09
2023-03-28T00:11:19.164Z,101678.22
2023-03-28T00:14:03.578Z,101678.59
2023-03-28T00:16:33.372Z,101682.84
2023-03-28T00:19:02.229Z,101688.03
2023-03-28T00:21:31.448Z,101683.88
2023-03-28T00:24:01.876Z,101696.38
2023-03-28T00:26:32.366Z,101702.66
2023-03-28T00:29:01.215Z,101699.19
2023-03-28T00:31:28.829Z,101681.66
2023-03-28T00:33:56.223Z,101700.28
2023-03-28T00:36:26.420Z,101706.16
2023-03-28T00:38:53.919Z,101703.78
2023-03-28T00:41:24.617Z,101711.63
2023-03-28T00:43:54.688Z,101719.06
2023-03-28T00:46:39.676Z,101716.75
2023-03-28T00:49:13.350Z,101716.22
2023-03-28T00:51:44.669Z,101722.66
2023-03-28T00:54:17.195Z,101722.16
2023-03-28T00:56:52.543Z,101722.78
2023-03-28T00:59:21.462Z,101726.28
2023-03-28T01:01:49.164Z,101721.47
2023-03-28T01:04:20.410Z,101724.06
2023-03-28T01:06:54.772Z,101724.00
2023-03-28T01:09:24.161Z,101729.25
2023-03-28T01:11:54.856Z,101731.00
2023-03-28T01:14:26.508Z,101733.47
2023-03-28T01:17:02.385Z,101744.47
2023-03-28T01:19:33.563Z,101739.28
2023-03-28T01:22:33.254Z,101738.59
2023-03-28T01:25:29.067Z,101741.53
2023-03-28T01:28:04.645Z,101747.03
2023-03-28T01:31:07.729Z,101748.66
2023-03-28T01:34:00.260Z,101754.81
2023-03-28T01:36:53.627Z,101748.56
2023-03-28T01:39:35.068Z,101754.75
2023-03-28T01:42:28.974Z,101761.97
2023-03-28T01:45:23.806Z,101760.06
2023-03-28T01:48:16.358Z,101752.34
2023-03-28T01:50:49.575Z,101764.66
2023-03-28T01:53:28.627Z,101763.38
2023-03-28T01:56:03.723Z,101758.72
2023-03-28T01:58:48.521Z,101756.16
2023-03-28T02:01:36.598Z,101751.56
2023-03-28T02:04:20.466Z,101755.53
2023-03-28T02:06:58.298Z,101758.50
2023-03-28T02:09:32.323Z,101762.09
2023-03-28T02:12:13.177Z,101760.34
2023-03-28T02:14:58.487Z,101755.44
2023-03-28T02:18:04.795Z,101761.00
2023-03-28T02:21:02.614Z,101756.31
2023-03-28T02:23:52.205Z,101761.84
2023-03-28T02:26:41.506Z,101758.31
2023-03-28T02:29:36.780Z,101762.91
2023-03-28T02:32:14.588Z,101755.28
2023-03-28T02:34:44.681Z,101765.25
2023-03-28T02:38:00.534Z,101767.81
2023-03-28T02:40:52.255Z,101765.75
2023-03-28T02:43:41.676Z,101767.47
2023-03-28T02:46:11.227Z,101769.75
2023-03-28T02:49:06.042Z,101759.66
2023-03-28T02:51:40.563Z,101770.50
2023-03-28T02:54:15.660Z,101769.03
2023-03-28T02:57:03.071Z,101777.72
2023-03-28T02:59:46.323Z,101776.81
2023-03-28T03:02:19.081Z,101778.72
2023-03-28T03:04:46.656Z,101784.56
2023-03-28T03:07:13.727Z,101785.56
2023-03-28T03:09:40.472Z,101788.06
2023-03-28T03:12:07.457Z,101789.06
2023-03-28T03:14:34.587Z,101789.63
2023-03-28T03:17:21.057Z,101785.03
2023-03-28T03:19:48.342Z,101791.38
2023-03-28T03:22:21.043Z,101793.97
2023-03-28T03:24:51.297Z,101794.06
2023-03-28T03:27:18.880Z,101792.97
2023-03-28T03:29:46.136Z,101793.25
2023-03-28T03:32:15.508Z,101796.56
2023-03-28T03:34:53.799Z,101792.13
2023-03-28T03:37:20.713Z,101793.16
2023-03-28T03:39:47.168Z,101800.25
2023-03-28T03:42:16.623Z,101795.13
2023-03-28T03:44:43.160Z,101797.03
2023-03-28T03:47:10.586Z,101803.16
2023-03-28T03:49:37.097Z,101801.38
2023-03-28T03:52:05.650Z,101800.06
2023-03-28T03:54:32.094Z,101802.75
2023-03-28T03:56:59.993Z,101804.53
2023-03-28T03:59:27.730Z,101817.00
2023-03-28T04:01:55.996Z,101816.50
2023-03-28T04:04:26.062Z,101808.28
2023-03-28T04:07:05.172Z,101801.75
2023-03-28T04:09:32.854Z,101808.59
2023-03-28T04:12:03.814Z,101816.59
2023-03-28T04:14:31.845Z,101814.78
2023-03-28T04:17:23.589Z,101814.69
2023-03-28T04:19:50.431Z,101816.50
2023-03-28T04:22:18.252Z,101817.44
2023-03-28T04:24:53.454Z,101815.69
2023-03-28T04:27:35.106Z,101815.88
2023-03-28T04:30:02.894Z,101810.41
2023-03-28T04:33:04.250Z,101818.81
2023-03-28T04:35:36.848Z,101815.31
2023-03-28T04:38:03.561Z,101813.66
2023-03-28T04:40:30.153Z,101817.34
2023-03-28T04:43:20.428Z,101826.66
2023-03-28T04:45:51.126Z,101829.81
2023-03-28T04:48:17.678Z,101827.44
2023-03-28T04:50:44.304Z,101829.44
2023-03-28T04:53:13.072Z,101844.78
2023-03-28T04:55:54.113Z,101846.63
2023-03-28T04:58:24.888Z,101853.81
2023-03-28T05:00:51.422Z,101857.53
2023-03-28T05:03:53.110Z,101863.44
2023-03-28T05:06:19.804Z,101866.66
2023-03-28T05:08:46.484Z,101871.94
2023-03-28T05:11:14.159Z,101868.16
2023-03-28T05:13:40.963Z,101868.16
2023-03-28T05:16:17.086Z,101859.28
2023-03-28T05:19:13.027Z,101873.97
2023-03-28T05:22:01.879Z,101866.66
2023-03-28T05:24:29.558Z,101872.47
2023-03-28T05:26:56.672Z,101879.22
2023-03-28T05:29:24.167Z,101875.47
2023-03-28T05:31:51.913Z,101879.75
2023-03-28T05:34:30.280Z,101889.44
2023-03-28T05:36:57.872Z,101883.81
2023-03-28T05:39:28.826Z,101898.84
2023-03-28T05:42:02.020Z,101902.66
2023-03-28T05:44:28.518Z,101894.28
2023-03-28T05:47:13.710Z,101902.41
2023-03-28T05:49:40.393Z,101899.75
2023-03-28T05:52:07.079Z,101914.50
2023-03-28T05:54:33.924Z,101912.66
2023-03-28T05:57:00.413Z,101920.44
2023-03-28T05:59:28.295Z,101923.28
2023-03-28T06:01:55.371Z,101920.81
2023-03-28T06:04:23.609Z,101928.03
2023-03-28T06:06:51.554Z,101927.28
2023-03-28T06:09:24.371Z,101925.78
2023-03-28T06:11:57.866Z,101926.16
2023-03-28T06:14:24.635Z,101929.66
2023-03-28T06:16:53.170Z,101931.41
2023-03-28T06:19:20.739Z,101923.84
2023-03-28T06:21:53.968Z,101932.03
2023-03-28T06:24:21.168Z,101938.03
2023-03-28T06:26:47.811Z,101938.03
2023-03-28T06:29:19.788Z,101932.69
2023-03-28T06:31:48.603Z,101936.81
2023-03-28T06:34:15.204Z,101936.56
2023-03-28T06:36:50.987Z,101935.13
2023-03-28T06:39:17.577Z,101935.50
2023-03-28T06:41:44.605Z,101946.84
2023-03-28T06:44:11.271Z,101948.84
2023-03-28T06:46:59.834Z,101950.22
2023-03-28T06:49:26.975Z,101954.59
2023-03-28T06:52:24.881Z,101955.22
2023-03-28T06:54:52.854Z,101963.78
2023-03-28T06:57:19.311Z,101968.16
2023-03-28T06:59:48.209Z,101967.38
2023-03-28T07:02:21.114Z,101960.56
2023-03-28T07:04:48.170Z,101972.28
2023-03-28T07:07:15.263Z,101978.56
2023-03-28T07:09:41.980Z,101975.69
2023-03-28T07:12:11.164Z,101985.97
2023-03-28T07:14:38.382Z,101983.38
2023-03-28T07:17:05.266Z,101984.94
2023-03-28T07:19:32.402Z,101985.13
2023-03-28T07:21:59.168Z,101991.88
2023-03-28T07:24:26.096Z,101992.31
2023-03-28T07:29:35.376Z,101977.44
2023-03-28T07:32:03.521Z,101988.44
2023-03-28T07:34:30.299Z,101990.38
2023-03-28T07:36:58.742Z,101988.94
2023-03-28T07:39:45.978Z,101995.88
2023-03-28T07:42:16.767Z,101995.03
2023-03-28T07:44:43.189Z,101995.75
2023-03-28T07:47:09.924Z,102013.75
2023-03-28T07:49:36.442Z,102019.13
2023-03-28T07:52:03.819Z,102012.34
2023-03-28T07:54:33.142Z,102019.88
2023-03-28T07:57:00.533Z,102021.78
2023-03-28T07:59:46.662Z,102020.44
2023-03-28T08:02:13.988Z,102020.03
2023-03-28T08:04:40.514Z,102014.31
2023-03-28T08:07:09.671Z,102022.09
2023-03-28T08:09:38.428Z,102014.25
2023-03-28T08:12:11.853Z,102023.59
2023-03-28T08:14:38.325Z,102031.09
2023-03-28T08:17:06.266Z,102028.88
2023-03-28T08:19:32.858Z,102023.34
2023-03-28T08:22:19.223Z,102026.28
2023-03-28T08:24:52.598Z,102025.81
2023-03-28T08:27:22.892Z,102027.09
2023-03-28T08:29:53.288Z,102028.16
2023-03-28T08:32:20.029Z,102037.88
2023-03-28T08:34:47.012Z,102038.78
2023-03-28T08:37:17.209Z,102031.34
2023-03-28T08:39:47.307Z,102035.78
2023-03-28T08:42:36.332Z,102032.69
2023-03-28T08:45:12.366Z,102038.31
2023-03-28T08:47:51.747Z,102039.31
2023-03-28T08:50:31.263Z,102049.88
2023-03-28T08:52:59.430Z,102039.97
2023-03-28T08:55:29.135Z,102044.28
2023-03-28T08:57:56.485Z,102043.50
2023-03-28T09:00:31.003Z,102045.59
2023-03-28T09:02:58.684Z,102046.19
2023-03-28T09:06:11.405Z,102057.38
2023-03-28T09:09:01.577Z,102062.19
2023-03-28T09:11:45.392Z,102065.91
2023-03-28T09:14:49.043Z,102055.56
2023-03-28T09:17:51.826Z,102051.63
2023-03-28T09:20:28.391Z,102057.22
2023-03-28T09:23:27.487Z,102051.63
2023-03-28T09:26:17.305Z,102054.94
2023-03-28T09:29:06.416Z,102053.25
2023-03-28T09:31:40.932Z,102055.56
2023-03-28T09:34:18.671Z,102056.19
2023-03-28T09:36:49.696Z,102054.31
2023-03-28T09:39:32.584Z,102040.81
2023-03-28T09:42:13.252Z,102049.13
2023-03-28T09:44:57.210Z,102051.78
2023-03-28T09:47:53.611Z,102048.25
2023-03-28T09:50:24.606Z,102042.38
2023-03-28T09:52:57.956Z,102051.69
2023-03-28T09:55:27.009Z,102051.53
2023-03-28T09:58:08.328Z,102041.19
2023-03-28T10:00:55.182Z,102050.47
2023-03-28T10:04:28.192Z,102037.19
2023-03-28T10:07:13.316Z,102040.63
2023-03-28T10:09:51.344Z,102044.38
2023-03-28T10:12:31.985Z,102037.88
2023-03-28T10:14:58.644Z,102037.50
2023-03-28T10:17:54.423Z,102047.13
2023-03-28T10:20:27.769Z,102042.41
2023-03-28T10:22:59.383Z,102044.69
2023-03-28T10:25:38.602Z,102033.03
2023-03-28T10:28:07.284Z,102038.06
2023-03-28T10:30:37.068Z,102046.63
2023-03-28T10:33:23.388Z,102042.75
2023-03-28T10:36:29.282Z,102041.56
2023-03-28T10:38:58.363Z,102047.38
2023-03-28T10:41:30.709Z,102045.75
2023-03-28T10:44:18.765Z,102050.34
2023-03-28T10:47:18.047Z,102050.13
2023-03-28T10:50:19.897Z,102049.09
2023-03-28T10:53:24.241Z,102041.56
2023-03-28T10:56:14.176Z,102042.09
2023-03-28T10:58:50.942Z,102038.03
2023-03-28T11:01:35.110Z,102043.56
2023-03-28T11:04:14.200Z,102028.63
2023-03-28T11:06:51.557Z,102029.00
2023-03-28T11:09:31.554Z,102031.19
2023-03-28T11:12:55.609Z,102034.72
2023-03-28T11:15:45.744Z,102028.03
2023-03-28T11:18:31.939Z,102032.13
2023-03-28T11:21:08.700Z,102021.63
2023-03-28T11:23:53.742Z,102040.22
2023-03-28T11:27:12.675Z,102028.63
2023-03-28T11:29:54.701Z,102028.03
2023-03-28T11:32:30.705Z,102026.66
2023-03-28T11:35:07.068Z,102025.75
2023-03-28T11:37:47.771Z,102015.38
2023-03-28T11:40:23.369Z,102009.31
2023-03-28T11:43:02.006Z,102007.72
2023-03-28T11:45:50.399Z,102003.81
2023-03-28T11:48:29.086Z,102012.47
2023-03-28T11:51:18.336Z,102005.22
2023-03-28T11:53:53.985Z,102007.75
2023-03-28T11:56:43.368Z,102010.81
2023-03-28T11:59:21.078Z,102000.91
2023-03-28T12:01:54.835Z,101997.41
2023-03-28T12:04:28.137Z,102000.72
2023-03-28T12:07:30.320Z,101997.63
2023-03-28T12:10:26.336Z,102007.84
2023-03-28T12:13:11.579Z,101991.81
2023-03-28T12:15:50.612Z,101993.25
2023-03-28T12:18:44.849Z,101991.44
2023-03-28T12:21:32.159Z,101987.97
2023-03-28T12:24:18.923Z,101978.31
2023-03-28T12:27:15.888Z,101972.44
2023-03-28T12:29:58.198Z,101982.94
2023-03-28T12:32:36.518Z,101962.66
2023-03-28T12:35:33.609Z,101964.09
2023-03-28T12:38:32.205Z,101956.38
2023-03-28T12:41:19.207Z,101961.28
2023-03-28T12:44:04.730Z,101956.94
2023-03-28T12:46:47.563Z,101949.88
2023-03-28T12:49:46.281Z,101948.13
2023-03-28T12:52:31.057Z,101946.25
2023-03-28T12:55:07.968Z,101944.63
2023-03-28T12:57:46.816Z,101941.13
2023-03-28T13:00:41.821Z,101945.88
2023-03-28T13:03:42.012Z,101946.16
2023-03-28T13:06:13.955Z,101950.81
2023-03-28T13:09:17.048Z,101947.63
2023-03-28T13:11:56.425Z,101949.06
2023-03-28T13:14:35.665Z,101944.56
2023-03-28T13:17:26.556Z,101939.81
2023-03-28T13:20:10.490Z,101934.59
2023-03-28T13:23:01.920Z,101931.63
2023-03-28T13:25:32.128Z,101927.47
2023-03-28T13:28:05.107Z,101929.41
2023-03-28T13:30:32.325Z,101924.88
2023-03-28T13:33:04.016Z,101917.91
2023-03-28T13:36:10.438Z,101920.59
2023-03-28T13:38:55.491Z,101910.66
2023-03-28T13:41:35.889Z,101911.94
2023-03-28T13:44:10.363Z,101916.78
2023-03-28T13:46:42.300Z,101903.00
2023-03-28T13:49:24.122Z,101894.97
2023-03-28T13:51:58.980Z,101896.75
2023-03-28T13:54:28.277Z,101898.88
2023-03-28T13:57:02.192Z,101891.91
2023-03-28T13:59:44.041Z,101888.50
2023-03-28T14:02:18.457Z,101888.97
2023-03-28T14:04:57.096Z,101890.03
2023-03-28T14:07:28.429Z,101886.59
2023-03-28T14:09:58.776Z,101881.16
2023-03-28T14:12:29.691Z,101881.34
2023-03-28T14:14:58.879Z,101884.81
2023-03-28T14:17:33.539Z,101875.03
2023-03-28T14:20:05.724Z,101879.41
2023-03-28T14:22:43.257Z,101867.50
2023-03-28T14:25:21.430Z,101876.00
2023-03-28T14:27:56.540Z,101872.59
2023-03-28T14:30:37.635Z,101872.94
2023-03-28T14:33:18.819Z,101864.38
2023-03-28T14:35:56.060Z,101867.69
2023-03-28T14:38:32.124Z,101860.59
2023-03-28T14:41:07.298Z,101846.38
2023-03-28T14:43:34.326Z,101850.47
2023-03-28T14:46:08.305Z,101854.66
2023-03-28T14:48:36.825Z,101839.03
2023-03-28T14:51:05.734Z,101826.97
2023-03-28T14:53:40.511Z,101826.97
2023-03-28T14:56:11.063Z,101827.34
2023-03-28T14:58:40.573Z,101826.03
2023-03-28T15:01:10.528Z,101814.72
2023-03-28T15:03:41.795Z,101810.50
2023-03-28T15:06:14.944Z,101813.22
2023-03-28T15:08:41.936Z,101802.03
2023-03-28T15:11:12.520Z,101798.63
2023-03-28T15:13:41.413Z,101802.72
2023-03-28T15:16:08.512Z,101793.50
2023-03-28T15:18:46.969Z,101789.63
2023-03-28T15:21:14.965Z,101791.38
2023-03-28T15:23:49.102Z,101783.34
2023-03-28T15:26:34.282Z,101785.50
2023-03-28T15:29:00.956Z,101775.75
2023-03-28T15:31:28.206Z,101772.56
2023-03-28T15:33:55.321Z,101768.06
2023-03-28T15:36:32.259Z,101762.53
2023-03-28T15:39:18.493Z,101763.69
2023-03-28T15:41:46.632Z,101765.81
2023-03-28T15:44:38.499Z,101757.44
2023-03-28T15:47:21.302Z,101756.47
2023-03-28T15:49:49.139Z,101757.22
2023-03-28T15:52:19.325Z,101753.31
2023-03-28T15:54:52.161Z,101746.16
2023-03-28T15:57:21.948Z,101745.31
2023-03-28T15:59:51.242Z,101742.31
2023-03-28T16:02:24.706Z,101741.19
2023-03-28T16:05:09.490Z,101745.97
2023-03-28T16:07:46.306Z,101737.16
2023-03-28T16:10:21.219Z,101732.13
2023-03-28T16:13:14.267Z,101733.50
2023-03-28T16:16:18.798Z,101741.63
2023-03-28T16:18:54.173Z,101736.34
2023-03-28T16:21:21.626Z,101729.38
2023-03-28T16:23:48.145Z,101736.78
2023-03-28T16:26:14.915Z,101734.50
2023-03-28T16:28:41.454Z,101735.81
2023-03-28T16:31:13.639Z,101738.34
2023-03-28T16:33:40.184Z,101727.78
2023-03-28T16:36:07.243Z,101725.75
2023-03-28T16:38:33.694Z,101728.56
2023-03-28T16:41:00.161Z,101725.94
2023-03-28T16:43:28.614Z,101724.88
2023-03-28T16:45:55.465Z,101722.44
2023-03-28T16:48:22.316Z,101722.22
2023-03-28T16:50:53.893Z,101725.72
2023-03-28T16:53:21.283Z,101720.28
2023-03-28T16:55:48.245Z,101709.22
2023-03-28T16:58:14.670Z,101703.16
2023-03-28T17:00:44.470Z,101702.50
2023-03-28T17:03:11.170Z,101707.75
2023-03-28T17:05:38.421Z,101695.50
2023-03-28T17:08:05.292Z,101696.94
2023-03-28T17:10:31.816Z,101695.81
2023-03-28T17:13:02.678Z,101690.97
2023-03-28T17:15:33.864Z,101689.31
2023-03-28T17:18:01.198Z,101685.16
2023-03-28T17:20:29.443Z,101669.41
2023-03-28T17:22:56.518Z,101661.31
2023-03-28T17:25:23.709Z,101660.91
2023-03-28T17:27:50.472Z,101660.09
2023-03-28T17:30:17.022Z,101658.78
2023-03-28T17:32:43.597Z,101656.06
2023-03-28T17:35:11.992Z,101651.69
2023-03-28T17:37:39.948Z,101645.34
2023-03-28T17:40:07.042Z,101637.31
2023-03-28T17:42:33.665Z,101636.91
2023-03-28T17:45:00.358Z,101637.81
2023-03-28T17:47:27.842Z,101638.03
2023-03-28T17:49:56.929Z,101639.53
2023-03-28T17:52:24.695Z,101643.28
2023-03-28T17:54:51.618Z,101647.03
2023-03-28T17:57:18.481Z,101648.91
2023-03-28T17:59:45.073Z,101643.75
2023-03-28T18:02:11.568Z,101651.25
2023-03-28T18:04:38.074Z,101649.56
2023-03-28T18:07:17.233Z,101644.84
2023-03-28T18:09:44.827Z,101639.66
2023-03-28T18:12:12.521Z,101638.00
2023-03-28T18:14:39.223Z,101637.16
2023-03-28T18:17:06.124Z,101640.31
2023-03-28T18:19:32.556Z,101642.41
2023-03-28T18:21:59.081Z,101640.13
2023-03-28T18:24:26.822Z,101644.72
2023-03-28T18:26:53.583Z,101644.13
2023-03-28T18:29:20.463Z,101639.75
2023-03-28T18:31:47.223Z,101643.31
2023-03-28T18:34:13.796Z,101634.34
2023-03-28T18:36:43.830Z,101621.94
2023-03-28T18:39:10.416Z,101627.13
2023-03-28T18:41:37.198Z,101626.47
2023-03-28T18:44:04.616Z,101625.88
2023-03-28T18:46:31.360Z,101619.88
2023-03-28T18:49:02.725Z,101612.97
2023-03-28T18:51:29.268Z,101614.94
2023-03-28T18:53:56.674Z,101601.28
2023-03-28T18:56:23.902Z,101602.09
2023-03-28T18:58:50.581Z,101612.50
2023-03-28T19:01:19.288Z,101599.47
2023-03-28T19:03:47.149Z,101592.16
2023-03-28T19:06:15.680Z,101597.59
2023-03-28T19:08:43.556Z,101588.38
2023-03-28T19:11:13.292Z,101591.00
2023-03-28T19:13:41.429Z,101581.25
2023-03-28T19:16:10.704Z,101580.56
2023-03-28T19:18:42.795Z,101572.97
2023-03-28T19:21:11.513Z,101576.16
2023-03-28T19:23:38.281Z,101573.66
2023-03-28T19:26:10.913Z,101573.22
2023-03-28T19:28:39.034Z,101570.00
2023-03-28T19:31:07.540Z,101558.09
2023-03-28T19:33:35.552Z,101562.88
2023-03-28T19:36:02.391Z,101568.34
2023-03-28T19:38:30.902Z,101556.63
2023-03-28T19:41:02.444Z,101557.97
2023-03-28T19:43:30.213Z,101561.50
2023-03-28T19:46:04.871Z,101548.53
2023-03-28T19:48:32.766Z,101544.50
2023-03-28T19:50:59.257Z,101550.06
2023-03-28T19:53:25.950Z,101537.81
2023-03-28T19:55:58.883Z,101545.31
2023-03-28T19:58:26.448Z,101539.16
2023-03-28T20:00:53.112Z,101536.09
2023-03-28T20:03:19.548Z,101534.47
2023-03-28T20:05:47.806Z,101531.19
2023-03-28T20:08:15.957Z,101527.44
2023-03-28T20:10:46.204Z,101523.31
2023-03-28T20:13:13.058Z,101512.31
2023-03-28T20:15:42.046Z,101524.34
2023-03-28T20:18:10.353Z,101519.81
2023-03-28T20:20:38.903Z,101515.66
2023-03-28T20:23:06.846Z,101514.69
2023-03-28T20:25:34.141Z,101522.78
2023-03-28T20:28:05.205Z,101513.63
2023-03-28T20:30:32.073Z,101511.09
2023-03-28T20:32:59.170Z,101521.28
2023-03-28T20:35:27.175Z,101508.44
2023-03-28T20:37:54.527Z,101513.84
2023-03-28T20:40:25.216Z,101493.56
2023-03-28T20:42:52.508Z,101494.81
2023-03-28T20:45:23.522Z,101499.97
2023-03-28T20:47:58.825Z,101502.66
2023-03-28T20:50:33.960Z,101490.41
2023-03-28T20:53:03.084Z,101481.53
2023-03-28T20:55:31.247Z,101485.75
2023-03-28T20:57:58.591Z,101487.19
2023-03-28T21:00:25.884Z,101480.34
2023-03-28T21:02:53.723Z,101474.53
2023-03-28T21:05:22.497Z,101482.66
2023-03-28T21:07:49.420Z,101478.09
2023-03-28T21:10:16.633Z,101469.84
2023-03-28T21:12:47.317Z,101467.97
2023-03-28T21:15:15.205Z,101466.94
2023-03-28T21:17:42.001Z,101469.63
2023-03-28T21:20:10.350Z,101462.50
2023-03-28T21:22:40.822Z,101466.28
2023-03-28T21:25:08.020Z,101460.94
2023-03-28T21:27:36.662Z,101458.69
2023-03-28T21:30:07.756Z,101454.31
2023-03-28T21:32:35.133Z,101446.66
2023-03-28T21:35:03.849Z,101449.78
2023-03-28T21:37:30.436Z,101449.56
2023-03-28T21:39:57.031Z,101441.22
2023-03-28T21:42:23.999Z,101433.41
2023-03-28T21:44:51.001Z,101432.75
2023-03-28T21:47:17.414Z,101429.25
2023-03-28T21:49:45.887Z,101431.50
2023-03-28T21:52:12.782Z,101439.59
2023-03-28T21:54:39.242Z,101432.09
2023-03-28T21:57:05.938Z,101433.56
2023-03-28T21:59:32.511Z,101431.06
2023-03-28T22:01:59.213Z,101425.25
2023-03-28T22:04:27.846Z,101428.53
2023-03-28T22:06:55.403Z,101421.88
2023-03-28T22:09:21.846Z,101418.78
2023-03-28T22:11:48.853Z,101426.66
2023-03-28T22:14:15.348Z,101420.44
2023-03-28T22:16:41.793Z,101413.41
2023-03-28T22:19:09.573Z,101414.47
2023-03-28T22:21:36.945Z,101416.09
2023-03-28T22:24:06.142Z,101408.00
2023-03-28T22:26:32.619Z,101400.75
2023-03-28T22:28:59.467Z,101399.09
2023-03-28T22:31:26.345Z,101397.38
2023-03-28T22:33:53.624Z,101400.53
2023-03-28T22:36:20.719Z,101393.50
2023-03-28T22:38:47.210Z,101388.31
2023-03-28T22:41:13.771Z,101385.84
2023-03-28T22:43:42.606Z,101392.50
2023-03-28T22:46:16.403Z,101380.09
2023-03-28T22:48:43.985Z,101385.09
2023-03-28T22:51:11.930Z,101378.06
2023-03-28T22:53:40.109Z,101387.56
2023-03-28T22:56:07.434Z,101376.16
2023-03-28T22:58:34.003Z,101373.47
2023-03-28T23:01:00.704Z,101379.09
2023-03-28T23:03:27.576Z,101379.09
2023-03-28T23:05:55.211Z,101376.16
2023-03-28T23:08:22.265Z,101378.06
2023-03-28T23:10:48.884Z,101372.06
2023-03-28T23:13:15.322Z,101372.22
2023-03-28T23:15:41.792Z,101374.09
2023-03-28T23:18:08.454Z,101373.47
2023-03-28T23:20:35.688Z,101368.25
2023-03-28T23:23:02.128Z,101355.75
2023-03-28T23:25:28.788Z,101357.88
2023-03-28T23:27:55.883Z,101354.91
2023-03-28T23:30:22.638Z,101361.53
2023-03-28T23:32:49.111Z,101355.91
2023-03-28T23:35:15.722Z,101351.78
2023-03-28T23:37:42.223Z,101351.03
2023-03-28T23:40:14.852Z,101355.31
2023-03-28T23:42:43.969Z,101349.31
2023-03-28T23:45:12.090Z,101351.56
2023-03-28T23:47:38.601Z,101350.38
2023-03-28T23:50:07.063Z,101342.44
2023-03-28T23:52:33.598Z,101341.22
2023-03-28T23:55:00.188Z,101336.88
2023-03-28T23:57:28.615Z,101333.97
2023-03-28T23:59:58.058Z,101337.47
